sensor_id;sensor_type;location;lat;lon;timestamp;pressure;altitude;pressure_sealevel;temperature;humidity
53506;BME280;39388;50.936;6.848;2023-04-02T00:00:35;100041.06;;;10.25;91.70
53506;BME280;39388;50.936;6.848;2023-04-02T00:03:06;100072.72;;;10.33;91.74
53506;BME280;39388;50.936;6.848;2023-04-02T00:05:45;100069.25;;;10.34;91.54
53506;BME280;39388;50.936;6.848;2023-04-02T00:08:22;100074.44;;;10.31;91.12
53506;BME280;39388;50.936;6.848;2023-04-02T00:10:58;100081.34;;;10.29;91.51
53506;BME280;39388;50.936;6.848;2023-04-02T00:13:36;100083.09;;;10.29;91.35
53506;BME280;39388;50.936;6.848;2023-04-02T00:16:12;100092.44;;;10.34;91.38
53506;BME280;39388;50.936;6.848;2023-04-02T00:18:46;100102.75;;;10.34;91.35
53506;BME280;39388;50.936;6.848;2023-04-02T00:21:22;100108.78;;;10.33;92.06
53506;BME280;39388;50.936;6.848;2023-04-02T00:23:54;100110.53;;;10.33;91.97
53506;BME280;39388;50.936;6.848;2023-04-02T00:29:01;100113.91;;;10.35;92.23
53506;BME280;39388;50.936;6.848;2023-04-02T00:31:33;100113.91;;;10.35;92.57
53506;BME280;39388;50.936;6.848;2023-04-02T00:34:08;100131.91;;;10.39;92.48
53506;BME280;39388;50.936;6.848;2023-04-02T00:36:44;100131.03;;;10.39;92.50
53506;BME280;39388;50.936;6.848;2023-04-02T00:39:21;100139.66;;;10.36;92.45
53506;BME280;39388;50.936;6.848;2023-04-02T00:41:54;100143.19;;;10.31;91.95
53506;BME280;39388;50.936;6.848;2023-04-02T00:44:39;100155.25;;;10.25;92.08
53506;BME280;39388;50.936;6.848;2023-04-02T00:47:34;100151.03;;;10.20;92.06
53506;BME280;39388;50.936;6.848;2023-04-02T00:50:29;100160.47;;;10.21;91.84
53506;BME280;39388;50.936;6.848;2023-04-02T00:52:59;100169.97;;;10.16;91.60
53506;BME280;39388;50.936;6.848;2023-04-02T00:55:35;100173.47;;;10.11;91.63
53506;BME280;39388;50.936;6.848;2023-04-02T01:00:49;100173.59;;;9.99;91.34
53506;BME280;39388;50.936;6.848;2023-04-02T01:06:00;100193.34;;;10.00;91.09
53506;BME280;39388;50.936;6.848;2023-04-02T01:08:39;100198.50;;;10.02;91.16
53506;BME280;39388;50.936;6.848;2023-04-02T01:29:19;100221.19;;;9.59;90.32
53506;BME280;39388;50.936;6.848;2023-04-02T01:31:52;100238.34;;;9.60;90.08
53506;BME280;39388;50.936;6.848;2023-04-02T01:34:25;100242.63;;;9.57;89.86
53506;BME280;39388;50.936;6.848;2023-04-02T01:40:33;100252.13;;;9.50;89.90
53506;BME280;39388;50.936;6.848;2023-04-02T01:45:15;100253.91;;;9.42;89.60
53506;BME280;39388;50.936;6.848;2023-04-02T01:47:46;100264.19;;;9.46;89.26
53506;BME280;39388;50.936;6.848;2023-04-02T01:50:33;100278.78;;;9.46;89.37
53506;BME280;39388;50.936;6.848;2023-04-02T01:53:09;100278.78;;;9.43;89.03
53506;BME280;39388;50.936;6.848;2023-04-02T01:55:46;100293.41;;;9.39;89.13
53506;BME280;39388;50.936;6.848;2023-04-02T01:58:20;100290.00;;;9.31;89.23
53506;BME280;39388;50.936;6.848;2023-04-02T02:01:05;100297.75;;;9.32;88.63
53506;BME280;39388;50.936;6.848;2023-04-02T02:03:37;100308.03;;;9.32;89.03
53506;BME280;39388;50.936;6.848;2023-04-02T02:06:14;100310.59;;;9.31;88.83
53506;BME280;39388;50.936;6.848;2023-04-02T02:08:49;100313.19;;;9.28;88.57
53506;BME280;39388;50.936;6.848;2023-04-02T02:11:25;100320.09;;;9.26;88.05
53506;BME280;39388;50.936;6.848;2023-04-02T02:13:59;100321.81;;;9.24;87.92
53506;BME280;39388;50.936;6.848;2023-04-02T02:16:30;100326.06;;;9.23;87.94
53506;BME280;39388;50.936;6.848;2023-04-02T02:19:02;100326.97;;;9.19;88.19
53506;BME280;39388;50.936;6.848;2023-04-02T02:21:40;100328.72;;;9.14;87.73
53506;BME280;39388;50.936;6.848;2023-04-02T02:24:26;100345.00;;;9.16;87.86
53506;BME280;39388;50.936;6.848;2023-04-02T02:27:14;100347.56;;;9.13;87.61
53506;BME280;39388;50.936;6.848;2023-04-02T02:32:22;100367.28;;;9.11;87.96
53506;BME280;39388;50.936;6.848;2023-04-02T02:35:05;100372.44;;;9.11;87.97
53506;BME280;39388;50.936;6.848;2023-04-02T02:37:41;100361.31;;;9.04;87.83
53506;BME280;39388;50.936;6.848;2023-04-02T02:40:22;100377.59;;;9.08;87.27
53506;BME280;39388;50.936;6.848;2023-04-02T02:43:00;100383.59;;;9.07;86.91
53506;BME280;39388;50.936;6.848;2023-04-02T02:45:34;100393.06;;;9.04;86.80
53506;BME280;39388;50.936;6.848;2023-04-02T02:48:11;100397.34;;;8.99;86.57
53506;BME280;39388;50.936;6.848;2023-04-02T02:50:43;100396.47;;;8.99;86.86
53506;BME280;39388;50.936;6.848;2023-04-02T02:53:22;100406.81;;;8.96;86.57
53506;BME280;39388;50.936;6.848;2023-04-02T02:55:57;100405.09;;;8.88;86.91
53506;BME280;39388;50.936;6.848;2023-04-02T02:58:31;100407.69;;;8.87;85.86
53506;BME280;39388;50.936;6.848;2023-04-02T03:01:03;100411.97;;;8.79;85.78
53506;BME280;39388;50.936;6.848;2023-04-02T03:03:34;100419.69;;;8.79;85.85
53506;BME280;39388;50.936;6.848;2023-04-02T03:06:08;100421.41;;;8.75;85.96
53506;BME280;39388;50.936;6.848;2023-04-02T03:08:47;100432.53;;;8.79;86.17
53506;BME280;39388;50.936;6.848;2023-04-02T03:11:53;100436.81;;;8.80;85.75
53506;BME280;39388;50.936;6.848;2023-04-02T03:14:35;100447.13;;;8.77;85.66
53506;BME280;39388;50.936;6.848;2023-04-02T03:17:17;100442.84;;;8.77;85.43
53506;BME280;39388;50.936;6.848;2023-04-02T03:19:55;100453.97;;;8.73;85.54
53506;BME280;39388;50.936;6.848;2023-04-02T03:22:32;100460.84;;;8.69;85.32
53506;BME280;39388;50.936;6.848;2023-04-02T03:25:27;100465.97;;;8.66;85.43
53506;BME280;39388;50.936;6.848;2023-04-02T03:28:05;100476.28;;;8.65;85.45
53506;BME280;39388;50.936;6.848;2023-04-02T03:30:44;100476.25;;;8.63;85.40
53506;BME280;39388;50.936;6.848;2023-04-02T03:33:33;100487.41;;;8.64;85.46
53506;BME280;39388;50.936;6.848;2023-04-02T03:41:38;100493.41;;;8.53;85.28
53506;BME280;39388;50.936;6.848;2023-04-02T03:44:22;100512.25;;;8.54;85.20
53506;BME280;39388;50.936;6.848;2023-04-02T03:47:00;100507.09;;;8.51;85.44
53506;BME280;39388;50.936;6.848;2023-04-02T03:49:37;100516.53;;;8.56;85.60
53506;BME280;39388;50.936;6.848;2023-04-02T03:52:28;100519.09;;;8.50;85.17
53506;BME280;39388;50.936;6.848;2023-04-02T03:55:02;100527.69;;;8.52;84.99
53506;BME280;39388;50.936;6.848;2023-04-02T03:57:59;100545.66;;;8.52;85.34
53506;BME280;39388;50.936;6.848;2023-04-02T04:00:36;100547.38;;;8.52;84.93
53506;BME280;39388;50.936;6.848;2023-04-02T04:03:26;100554.22;;;8.50;85.38
53506;BME280;39388;50.936;6.848;2023-04-02T04:06:05;100561.06;;;8.49;85.13
53506;BME280;39388;50.936;6.848;2023-04-02T04:09:00;100562.78;;;8.44;84.83
53506;BME280;39388;50.936;6.848;2023-04-02T04:11:38;100563.63;;;8.38;85.33
53506;BME280;39388;50.936;6.848;2023-04-02T04:14:32;100583.31;;;8.39;84.85
53506;BME280;39388;50.936;6.848;2023-04-02T04:19:53;100587.59;;;8.23;84.71
53506;BME280;39388;50.936;6.848;2023-04-02T04:22:26;100596.13;;;8.24;84.83
53506;BME280;39388;50.936;6.848;2023-04-02T04:25:15;100601.25;;;8.19;84.93
53506;BME280;39388;50.936;6.848;2023-04-02T04:31:29;100596.09;;;8.07;84.99
53506;BME280;39388;50.936;6.848;2023-04-02T04:34:16;100615.78;;;8.12;84.91
53506;BME280;39388;50.936;6.848;2023-04-02T04:37:16;100630.34;;;8.12;85.20
53506;BME280;39388;50.936;6.848;2023-04-02T04:40:02;100638.03;;;8.10;85.01
53506;BME280;39388;50.936;6.848;2023-04-02T04:42:38;100638.03;;;8.09;85.01
53506;BME280;39388;50.936;6.848;2023-04-02T04:48:23;100653.44;;;8.06;84.97
53506;BME280;39388;50.936;6.848;2023-04-02T04:51:01;100648.25;;;7.98;84.66
53506;BME280;39388;50.936;6.848;2023-04-02T04:53:44;100669.66;;;8.02;84.73
53506;BME280;39388;50.936;6.848;2023-04-02T04:56:19;100676.53;;;8.01;84.79
53506;BME280;39388;50.936;6.848;2023-04-02T04:59:17;100684.19;;;8.00;84.82
53506;BME280;39388;50.936;6.848;2023-04-02T05:02:34;100691.91;;;7.98;84.73
53506;BME280;39388;50.936;6.848;2023-04-02T05:04:56;100698.75;;;7.97;84.71
53506;BME280;39388;50.936;6.848;2023-04-02T05:07:29;100702.16;;;7.95;84.63
53506;BME280;39388;50.936;6.848;2023-04-02T05:13:38;100696.06;;;7.80;84.41
53506;BME280;39388;50.936;6.848;2023-04-02T05:18:59;100720.94;;;7.85;84.59
53506;BME280;39388;50.936;6.848;2023-04-02T05:30:13;100733.72;;;7.75;84.72
53506;BME280;39388;50.936;6.848;2023-04-02T05:32:58;100757.72;;;7.84;85.22
53506;BME280;39388;50.936;6.848;2023-04-02T05:35:33;100762.00;;;7.83;85.25
53506;BME280;39388;50.936;6.848;2023-04-02T05:38:04;100767.13;;;7.86;84.73
53506;BME280;39388;50.936;6.848;2023-04-02T05:40:41;100776.53;;;7.84;84.38
53506;BME280;39388;50.936;6.848;2023-04-02T05:43:16;100774.00;;;7.86;84.64
53506;BME280;39388;50.936;6.848;2023-04-02T05:45:54;100774.81;;;7.80;84.14
53506;BME280;39388;50.936;6.848;2023-04-02T05:48:37;100772.13;;;7.66;84.18
53506;BME280;39388;50.936;6.848;2023-04-02T05:51:15;100793.63;;;7.79;84.33
53506;BME280;39388;50.936;6.848;2023-04-02T05:53:56;100795.28;;;7.72;83.71
53506;BME280;39388;50.936;6.848;2023-04-02T05:56:38;100809.84;;;7.73;83.85
53506;BME280;39388;50.936;6.848;2023-04-02T05:59:25;100821.78;;;7.71;83.79
53506;BME280;39388;50.936;6.848;2023-04-02T06:05:03;100832.06;;;7.73;83.53
53506;BME280;39388;50.936;6.848;2023-04-02T06:07:47;100836.31;;;7.69;83.46
53506;BME280;39388;50.936;6.848;2023-04-02T06:12:58;100852.56;;;7.68;83.62
53506;BME280;39388;50.936;6.848;2023-04-02T06:15:34;100848.28;;;7.65;83.40
53506;BME280;39388;50.936;6.848;2023-04-02T06:18:07;100863.66;;;7.65;83.60
53506;BME280;39388;50.936;6.848;2023-04-02T06:20:38;100857.59;;;7.57;83.18
53506;BME280;39388;50.936;6.848;2023-04-02T06:28:45;100880.66;;;7.56;83.60
53506;BME280;39388;50.936;6.848;2023-04-02T06:31:33;100887.50;;;7.54;83.77
53506;BME280;39388;50.936;6.848;2023-04-02T06:34:10;100896.03;;;7.51;83.89
53506;BME280;39388;50.936;6.848;2023-04-02T06:36:43;100895.09;;;7.46;84.41
53506;BME280;39388;50.936;6.848;2023-04-02T06:39:20;100901.97;;;7.47;84.47
53506;BME280;39388;50.936;6.848;2023-04-02T06:41:57;100904.53;;;7.47;84.31
53506;BME280;39388;50.936;6.848;2023-04-02T06:44:34;100903.59;;;7.40;84.35
53506;BME280;39388;50.936;6.848;2023-04-02T06:47:40;100922.44;;;7.44;84.52
53506;BME280;39388;50.936;6.848;2023-04-02T06:50:20;100925.94;;;7.47;84.56
53506;BME280;39388;50.936;6.848;2023-04-02T06:52:54;100939.56;;;7.45;84.26
53506;BME280;39388;50.936;6.848;2023-04-02T06:55:48;100932.56;;;7.34;84.39
53506;BME280;39388;50.936;6.848;2023-04-02T06:58:20;100941.94;;;7.32;84.19
53506;BME280;39388;50.936;6.848;2023-04-02T07:00:50;100958.22;;;7.34;84.21
53506;BME280;39388;50.936;6.848;2023-04-02T07:03:27;100964.16;;;7.29;83.83
53506;BME280;39388;50.936;6.848;2023-04-02T07:05:59;100965.78;;;7.24;83.73
53506;BME280;39388;50.936;6.848;2023-04-02T07:08:31;100982.06;;;7.26;83.94
53506;BME280;39388;50.936;6.848;2023-04-02T07:11:01;100987.13;;;7.21;83.40
53506;BME280;39388;50.936;6.848;2023-04-02T07:13:32;100986.25;;;7.20;83.89
53506;BME280;39388;50.936;6.848;2023-04-02T07:16:02;100997.44;;;7.24;83.96
53506;BME280;39388;50.936;6.848;2023-04-02T07:18:33;101005.91;;;7.20;83.57
53506;BME280;39388;50.936;6.848;2023-04-02T07:21:03;101010.22;;;7.21;83.99
53506;BME280;39388;50.936;6.848;2023-04-02T07:23:34;101012.78;;;7.21;84.10
53506;BME280;39388;50.936;6.848;2023-04-02T07:26:05;101021.31;;;7.20;83.98
53506;BME280;39388;50.936;6.848;2023-04-02T07:28:36;101018.75;;;7.18;84.29
53506;BME280;39388;50.936;6.848;2023-04-02T07:31:23;101034.19;;;7.23;83.89
53506;BME280;39388;50.936;6.848;2023-04-02T07:33:57;101046.22;;;7.29;83.37
53506;BME280;39388;50.936;6.848;2023-04-02T07:36:28;101032.50;;;7.25;83.37
53506;BME280;39388;50.936;6.848;2023-04-02T07:38:59;101040.22;;;7.27;83.20
53506;BME280;39388;50.936;6.848;2023-04-02T07:41:30;101060.78;;;7.30;83.37
53506;BME280;39388;50.936;6.848;2023-04-02T07:44:00;101052.09;;;7.20;83.22
53506;BME280;39388;50.936;6.848;2023-04-02T07:46:32;101052.91;;;7.17;82.60
53506;BME280;39388;50.936;6.848;2023-04-02T07:49:03;101069.25;;;7.26;82.80
53506;BME280;39388;50.936;6.848;2023-04-02T07:51:33;101082.97;;;7.26;82.26
53506;BME280;39388;50.936;6.848;2023-04-02T07:54:03;101084.59;;;7.21;82.53
53506;BME280;39388;50.936;6.848;2023-04-02T07:56:34;101087.09;;;7.19;82.55
53506;BME280;39388;50.936;6.848;2023-04-02T07:59:05;101091.50;;;7.25;82.61
53506;BME280;39388;50.936;6.848;2023-04-02T08:01:36;101090.56;;;7.21;82.17
53506;BME280;39388;50.936;6.848;2023-04-02T08:04:15;101099.19;;;7.25;82.22
53506;BME280;39388;50.936;6.848;2023-04-02T08:06:47;101104.31;;;7.25;82.12
53506;BME280;39388;50.936;6.848;2023-04-02T08:09:17;101105.13;;;7.22;82.21
53506;BME280;39388;50.936;6.848;2023-04-02T08:11:48;101114.59;;;7.25;82.51
53506;BME280;39388;50.936;6.848;2023-04-02T08:14:18;101119.66;;;7.22;82.78
53506;BME280;39388;50.936;6.848;2023-04-02T08:16:51;101117.94;;;7.21;82.58
53506;BME280;39388;50.936;6.848;2023-04-02T08:19:22;101125.69;;;7.24;82.23
53506;BME280;39388;50.936;6.848;2023-04-02T08:21:52;101139.41;;;7.29;82.37
53506;BME280;39388;50.936;6.848;2023-04-02T08:24:23;101148.00;;;7.30;81.96
53506;BME280;39388;50.936;6.848;2023-04-02T08:26:53;101151.44;;;7.32;81.77
53506;BME280;39388;50.936;6.848;2023-04-02T08:29:24;101154.03;;;7.33;82.24
53506;BME280;39388;50.936;6.848;2023-04-02T08:31:54;101167.84;;;7.42;81.87
53506;BME280;39388;50.936;6.848;2023-04-02T08:34:25;101173.94;;;7.48;81.92
53506;BME280;39388;50.936;6.848;2023-04-02T08:36:56;101164.34;;;7.36;81.47
53506;BME280;39388;50.936;6.848;2023-04-02T08:39:27;101182.53;;;7.50;81.41
53506;BME280;39388;50.936;6.848;2023-04-02T08:42:17;101187.72;;;7.54;81.47
53506;BME280;39388;50.936;6.848;2023-04-02T08:44:59;101196.34;;;7.59;81.62
53506;BME280;39388;50.936;6.848;2023-04-02T08:47:37;101194.63;;;7.58;81.09
53506;BME280;39388;50.936;6.848;2023-04-02T08:50:36;101210.94;;;7.63;80.85
53506;BME280;39388;50.936;6.848;2023-04-02T08:53:36;101211.88;;;7.66;81.55
53506;BME280;39388;50.936;6.848;2023-04-02T08:58:42;101221.25;;;7.66;80.24
53506;BME280;39388;50.936;6.848;2023-04-02T09:01:26;101223.75;;;7.60;80.21
53506;BME280;39388;50.936;6.848;2023-04-02T09:04:05;101222.81;;;7.56;80.45
53506;BME280;39388;50.936;6.848;2023-04-02T09:06:36;101225.34;;;7.53;80.38
53506;BME280;39388;50.936;6.848;2023-04-02T09:09:07;101228.84;;;7.58;80.45
53506;BME280;39388;50.936;6.848;2023-04-02T09:14:43;101234.88;;;7.60;79.83
53506;BME280;39388;50.936;6.848;2023-04-02T09:19:53;101241.72;;;7.60;79.62
53506;BME280;39388;50.936;6.848;2023-04-02T09:22:29;101243.47;;;7.62;79.32
53506;BME280;39388;50.936;6.848;2023-04-02T09:25:02;101268.34;;;7.66;79.22
53506;BME280;39388;50.936;6.848;2023-04-02T09:27:35;101276.88;;;7.65;78.99
53506;BME280;39388;50.936;6.848;2023-04-02T09:33:03;101284.53;;;7.64;79.05
53506;BME280;39388;50.936;6.848;2023-04-02T09:35:56;101286.25;;;7.65;79.09
53506;BME280;39388;50.936;6.848;2023-04-02T09:38:28;101285.41;;;7.64;78.45
53506;BME280;39388;50.936;6.848;2023-04-02T09:41:04;101299.22;;;7.71;78.72
53506;BME280;39388;50.936;6.848;2023-04-02T09:43:36;101313.78;;;7.74;78.39
53506;BME280;39388;50.936;6.848;2023-04-02T09:46:23;101300.97;;;7.74;77.86
53506;BME280;39388;50.936;6.848;2023-04-02T09:48:56;101301.06;;;7.80;78.07
53506;BME280;39388;50.936;6.848;2023-04-02T09:51:33;101323.50;;;7.92;77.86
53506;BME280;39388;50.936;6.848;2023-04-02T09:54:07;101330.47;;;8.01;77.91
53506;BME280;39388;50.936;6.848;2023-04-02T09:57:02;101327.97;;;8.05;77.24
53506;BME280;39388;50.936;6.848;2023-04-02T09:59:33;101329.69;;;8.06;77.12
53506;BME280;39388;50.936;6.848;2023-04-02T10:02:16;101348.56;;;8.08;77.23
53506;BME280;39388;50.936;6.848;2023-04-02T10:04:52;101350.34;;;8.11;77.06
53506;BME280;39388;50.936;6.848;2023-04-02T10:07:36;101350.28;;;8.08;77.00
53506;BME280;39388;50.936;6.848;2023-04-02T10:10:26;101365.84;;;8.17;76.73
53506;BME280;39388;50.936;6.848;2023-04-02T10:13:01;101374.38;;;8.15;76.52
53506;BME280;39388;50.936;6.848;2023-04-02T10:16:14;101375.06;;;8.04;76.44
53506;BME280;39388;50.936;6.848;2023-04-02T10:18:49;101368.97;;;7.97;76.41
53506;BME280;39388;50.936;6.848;2023-04-02T10:23:57;101387.09;;;8.08;76.40
53506;BME280;39388;50.936;6.848;2023-04-02T10:29:47;101402.00;;;8.30;75.88
53506;BME280;39388;50.936;6.848;2023-04-02T10:32:31;101400.38;;;8.35;75.59
53506;BME280;39388;50.936;6.848;2023-04-02T10:40:50;101415.00;;;8.39;74.64
53506;BME280;39388;50.936;6.848;2023-04-02T10:49:12;101419.59;;;8.60;74.78
53506;BME280;39388;50.936;6.848;2023-04-02T10:52:08;101426.47;;;8.61;74.42
53506;BME280;39388;50.936;6.848;2023-04-02T11:00:30;101441.78;;;8.55;74.07
53506;BME280;39388;50.936;6.848;2023-04-02T11:03:12;101452.97;;;8.57;74.07
53506;BME280;39388;50.936;6.848;2023-04-02T11:05:46;101456.38;;;8.54;73.79
53506;BME280;39388;50.936;6.848;2023-04-02T11:11:04;101465.81;;;8.58;73.87
53506;BME280;39388;50.936;6.848;2023-04-02T11:13:57;101471.03;;;8.63;73.52
53506;BME280;39388;50.936;6.848;2023-04-02T11:16:30;101466.84;;;8.68;73.40
53506;BME280;39388;50.936;6.848;2023-04-02T11:22:00;101461.97;;;8.87;72.77
53506;BME280;39388;50.936;6.848;2023-04-02T11:24:46;101462.13;;;8.98;72.70
53506;BME280;39388;50.936;6.848;2023-04-02T11:27:27;101479.47;;;9.14;72.66
53506;BME280;39388;50.936;6.848;2023-04-02T11:32:42;101483.94;;;9.25;72.20
53506;BME280;39388;50.936;6.848;2023-04-02T11:35:36;101496.78;;;9.25;71.06
53506;BME280;39388;50.936;6.848;2023-04-02T11:48:45;101501.88;;;9.91;69.89
53506;BME280;39388;50.936;6.848;2023-04-02T11:53:51;101518.91;;;9.81;69.20
53506;BME280;39388;50.936;6.848;2023-04-02T11:56:45;101507.53;;;9.60;69.16
53506;BME280;39388;50.936;6.848;2023-04-02T11:59:32;101516.94;;;9.60;69.66
53506;BME280;39388;50.936;6.848;2023-04-02T12:10:21;101528.94;;;9.56;69.33
53506;BME280;39388;50.936;6.848;2023-04-02T12:12:51;101538.34;;;9.54;69.22
53506;BME280;39388;50.936;6.848;2023-04-02T12:18:12;101539.06;;;9.44;68.68
53506;BME280;39388;50.936;6.848;2023-04-02T12:20:52;101532.13;;;9.38;69.24
53506;BME280;39388;50.936;6.848;2023-04-02T12:23:30;101547.69;;;9.49;68.75
53506;BME280;39388;50.936;6.848;2023-04-02T12:26:04;101548.56;;;9.48;68.84
53506;BME280;39388;50.936;6.848;2023-04-02T12:28:38;101546.00;;;9.48;68.82
53506;BME280;39388;50.936;6.848;2023-04-02T12:33:40;101557.28;;;9.59;68.61
53506;BME280;39388;50.936;6.848;2023-04-02T12:41:25;101566.75;;;9.60;68.33
53506;BME280;39388;50.936;6.848;2023-04-02T12:44:19;101557.19;;;9.53;68.58
53506;BME280;39388;50.936;6.848;2023-04-02T12:46:51;101562.41;;;9.58;68.84
53506;BME280;39388;50.936;6.848;2023-04-02T12:49:40;101571.84;;;9.57;68.54
53506;BME280;39388;50.936;6.848;2023-04-02T12:52:14;101580.41;;;9.55;68.15
53506;BME280;39388;50.936;6.848;2023-04-02T12:54:48;101588.97;;;9.54;68.16
53506;BME280;39388;50.936;6.848;2023-04-02T12:57:38;101589.81;;;9.53;68.12
53506;BME280;39388;50.936;6.848;2023-04-02T13:02:58;101588.19;;;9.61;68.34
53506;BME280;39388;50.936;6.848;2023-04-02T13:05:36;101588.13;;;9.55;68.36
53506;BME280;39388;50.936;6.848;2023-04-02T13:08:18;101598.50;;;9.59;68.35
53506;BME280;39388;50.936;6.848;2023-04-02T13:10:54;101590.66;;;9.53;68.50
53506;BME280;39388;50.936;6.848;2023-04-02T13:13:33;101595.88;;;9.58;68.09
53506;BME280;39388;50.936;6.848;2023-04-02T13:18:46;101592.50;;;9.63;68.40
53506;BME280;39388;50.936;6.848;2023-04-02T13:23:50;101600.22;;;9.60;67.94
53506;BME280;39388;50.936;6.848;2023-04-02T13:26:23;101598.56;;;9.65;68.06
53506;BME280;39388;50.936;6.848;2023-04-02T13:29:03;101577.84;;;9.55;67.34
53506;BME280;39388;50.936;6.848;2023-04-02T13:31:34;101607.09;;;9.61;67.17
53506;BME280;39388;50.936;6.848;2023-04-02T13:34:04;101620.81;;;9.60;66.42
53506;BME280;39388;50.936;6.848;2023-04-02T13:36:35;101615.53;;;9.51;66.66
53506;BME280;39388;50.936;6.848;2023-04-02T13:39:06;101611.94;;;9.41;66.97
53506;BME280;39388;50.936;6.848;2023-04-02T13:41:41;101611.09;;;9.39;67.20
53506;BME280;39388;50.936;6.848;2023-04-02T13:44:22;101618.91;;;9.47;66.75
53506;BME280;39388;50.936;6.848;2023-04-02T13:46:54;101616.28;;;9.44;66.81
53506;BME280;39388;50.936;6.848;2023-04-02T13:49:25;101593.84;;;9.35;66.31
53506;BME280;39388;50.936;6.848;2023-04-02T13:51:58;101629.13;;;9.42;66.32
53506;BME280;39388;50.936;6.848;2023-04-02T13:54:39;101624.84;;;9.43;66.45
53506;BME280;39388;50.936;6.848;2023-04-02T13:57:10;101624.78;;;9.38;66.51
53506;BME280;39388;50.936;6.848;2023-04-02T13:59:41;101630.91;;;9.46;66.88
53506;BME280;39388;50.936;6.848;2023-04-02T14:02:15;101634.44;;;9.53;67.05
53506;BME280;39388;50.936;6.848;2023-04-02T14:04:48;101632.88;;;9.63;66.70
53506;BME280;39388;50.936;6.848;2023-04-02T14:07:38;101642.31;;;9.62;66.27
53506;BME280;39388;50.936;6.848;2023-04-02T14:15:50;101655.25;;;9.67;66.04
53506;BME280;39388;50.936;6.848;2023-04-02T14:32:05;101674.00;;;9.58;65.74
53506;BME280;39388;50.936;6.848;2023-04-02T14:35:04;101675.63;;;9.53;65.86
53506;BME280;39388;50.936;6.848;2023-04-02T14:40:52;101687.59;;;9.51;65.41
53506;BME280;39388;50.936;6.848;2023-04-02T14:43:31;101698.75;;;9.48;65.64
53506;BME280;39388;50.936;6.848;2023-04-02T14:46:07;101698.72;;;9.47;66.00
53506;BME280;39388;50.936;6.848;2023-04-02T14:52:02;101701.19;;;9.42;65.28
53506;BME280;39388;50.936;6.848;2023-04-02T14:54:36;101703.66;;;9.34;65.13
53506;BME280;39388;50.936;6.848;2023-04-02T14:57:19;101704.47;;;9.30;65.31
53506;BME280;39388;50.936;6.848;2023-04-02T15:00:01;101724.97;;;9.26;64.62
53506;BME280;39388;50.936;6.848;2023-04-02T15:05:34;101736.53;;;9.00;64.25
53506;BME280;39388;50.936;6.848;2023-04-02T15:08:19;101731.47;;;9.03;64.32
53506;BME280;39388;50.936;6.848;2023-04-02T15:13:52;101738.34;;;9.04;64.72
53506;BME280;39388;50.936;6.848;2023-04-02T15:16:25;101742.63;;;9.05;64.42
53506;BME280;39388;50.936;6.848;2023-04-02T15:18:57;101738.34;;;9.06;64.25
53506;BME280;39388;50.936;6.848;2023-04-02T15:21:38;101740.94;;;9.06;63.96
53506;BME280;39388;50.936;6.848;2023-04-02T15:27:34;101750.25;;;9.01;63.69
53506;BME280;39388;50.936;6.848;2023-04-02T15:30:22;101746.75;;;8.96;63.16
53506;BME280;39388;50.936;6.848;2023-04-02T15:32:56;101752.63;;;8.88;63.30
53506;BME280;39388;50.936;6.848;2023-04-02T15:35:35;101761.09;;;8.83;63.08
53506;BME280;39388;50.936;6.848;2023-04-02T15:38:08;101758.34;;;8.75;62.71
53506;BME280;39388;50.936;6.848;2023-04-02T15:43:30;101768.41;;;8.63;62.65
53506;BME280;39388;50.936;6.848;2023-04-02T15:51:45;101777.94;;;8.68;63.06
53506;BME280;39388;50.936;6.848;2023-04-02T15:57:22;101791.41;;;8.56;61.97
53506;BME280;39388;50.936;6.848;2023-04-02T16:11:32;101818.00;;;8.57;62.44
53506;BME280;39388;50.936;6.848;2023-04-02T16:16:46;101825.41;;;8.43;61.80
53506;BME280;39388;50.936;6.848;2023-04-02T16:19:47;101821.81;;;8.36;62.00
53506;BME280;39388;50.936;6.848;2023-04-02T16:22:25;101828.81;;;8.42;62.43
53506;BME280;39388;50.936;6.848;2023-04-02T16:25:15;101841.81;;;8.48;61.96
53506;BME280;39388;50.936;6.848;2023-04-02T16:30:49;101848.41;;;8.37;61.21
53506;BME280;39388;50.936;6.848;2023-04-02T16:39:36;101842.91;;;8.21;60.47
53506;BME280;39388;50.936;6.848;2023-04-02T16:45:18;101865.34;;;8.28;60.56
53506;BME280;39388;50.936;6.848;2023-04-02T16:54:17;101880.53;;;8.18;59.73
53506;BME280;39388;50.936;6.848;2023-04-02T16:57:14;101873.41;;;8.07;59.89
53506;BME280;39388;50.936;6.848;2023-04-02T17:00:03;101886.31;;;8.09;59.63
53506;BME280;39388;50.936;6.848;2023-04-02T17:08:42;101904.88;;;7.98;60.02
53506;BME280;39388;50.936;6.848;2023-04-02T17:11:24;101898.78;;;7.95;60.10
53506;BME280;39388;50.936;6.848;2023-04-02T17:14:14;101899.69;;;7.95;59.84
53506;BME280;39388;50.936;6.848;2023-04-02T17:17:11;101910.78;;;7.94;60.31
53506;BME280;39388;50.936;6.848;2023-04-02T17:19:42;101907.28;;;7.91;60.41
53506;BME280;39388;50.936;6.848;2023-04-02T17:25:20;101898.38;;;7.78;60.73
53506;BME280;39388;50.936;6.848;2023-04-02T17:27:54;101928.50;;;7.85;60.52
53506;BME280;39388;50.936;6.848;2023-04-02T17:32:57;101934.34;;;7.79;61.04
53506;BME280;39388;50.936;6.848;2023-04-02T17:35:55;101933.38;;;7.74;61.16
53506;BME280;39388;50.936;6.848;2023-04-02T17:46:46;101943.31;;;7.62;61.51
53506;BME280;39388;50.936;6.848;2023-04-02T17:52:54;101959.41;;;7.56;61.62
53506;BME280;39388;50.936;6.848;2023-04-02T18:18:13;102002.66;;;7.42;62.25
53506;BME280;39388;50.936;6.848;2023-04-02T18:20:56;102002.00;;;7.49;61.72
53506;BME280;39388;50.936;6.848;2023-04-02T18:29:55;102018.44;;;7.56;61.42
53506;BME280;39388;50.936;6.848;2023-04-02T18:35:37;102010.75;;;7.56;61.71
53506;BME280;39388;50.936;6.848;2023-04-02T18:38:20;102025.47;;;7.62;60.93
53506;BME280;39388;50.936;6.848;2023-04-02T18:43:50;102028.88;;;7.62;60.75
53506;BME280;39388;50.936;6.848;2023-04-02T18:46:46;102033.94;;;7.59;60.74
53506;BME280;39388;50.936;6.848;2023-04-02T18:49:37;102021.75;;;7.52;60.50
53506;BME280;39388;50.936;6.848;2023-04-02T18:52:14;102039.13;;;7.61;60.30